sensor_id;sensor_type;location;lat;lon;timestamp;P1;durP1;ratioP1;P2;durP2;ratioP2
59872;SDS011;50750;51.636;4.948;2022-11-15T00:00:55;9.60;;;5.30;;
59872;SDS011;50750;51.636;4.948;2022-11-15T00:03:23;7.40;;;5.10;;
59872;SDS011;50750;51.636;4.948;2022-11-15T00:05:51;9.40;;;5.30;;
59872;SDS011;50750;51.636;4.948;2022-11-15T00:08:17;9.50;;;5.20;;
59872;SDS011;50750;51.636;4.948;2022-11-15T00:11:00;10.40;;;5.50;;
59872;SDS011;50750;51.636;4.948;2022-11-15T00:13:28;7.40;;;4.30;;
59872;SDS011;50750;51.636;4.948;2022-11-15T00:15:56;6.70;;;4.20;;
59872;SDS011;50750;51.636;4.948;2022-11-15T00:18:24;7.70;;;4.40;;
59872;SDS011;50750;51.636;4.948;2022-11-15T00:20:51;7.20;;;4.30;;
59872;SDS011;50750;51.636;4.948;2022-11-15T00:23:18;9.10;;;4.90;;
59872;SDS011;50750;51.636;4.948;2022-11-15T00:25:44;7.70;;;4.60;;
59872;SDS011;50750;51.636;4.948;2022-11-15T00:28:11;7.40;;;4.80;;
59872;SDS011;50750;51.636;4.948;2022-11-15T00:30:38;8.60;;;5.20;;
59872;SDS011;50750;51.636;4.948;2022-11-15T00:33:04;8.70;;;5.00;;
59872;SDS011;50750;51.636;4.948;2022-11-15T00:35:32;6.80;;;4.40;;
59872;SDS011;50750;51.636;4.948;2022-11-15T00:38:00;8.40;;;5.00;;
59872;SDS011;50750;51.636;4.948;2022-11-15T00:40:29;9.90;;;5.30;;
59872;SDS011;50750;51.636;4.948;2022-11-15T00:42:55;7.00;;;4.40;;
59872;SDS011;50750;51.636;4.948;2022-11-15T00:45:23;7.90;;;5.00;;
59872;SDS011;50750;51.636;4.948;2022-11-15T00:47:51;7.40;;;4.30;;
59872;SDS011;50750;51.636;4.948;2022-11-15T00:50:17;7.80;;;4.90;;
59872;SDS011;50750;51.636;4.948;2022-11-15T00:52:45;8.00;;;4.70;;
59872;SDS011;50750;51.636;4.948;2022-11-15T00:55:18;7.50;;;4.30;;
59872;SDS011;50750;51.636;4.948;2022-11-15T00:57:45;7.80;;;5.10;;
59872;SDS011;50750;51.636;4.948;2022-11-15T01:00:13;7.40;;;4.90;;
59872;SDS011;50750;51.636;4.948;2022-11-15T01:02:39;9.00;;;5.70;;
59872;SDS011;50750;51.636;4.948;2022-11-15T01:05:06;7.10;;;4.30;;
59872;SDS011;50750;51.636;4.948;2022-11-15T01:07:34;7.20;;;4.80;;
59872;SDS011;50750;51.636;4.948;2022-11-15T01:10:00;7.40;;;4.80;;
59872;SDS011;50750;51.636;4.948;2022-11-15T01:12:27;7.80;;;4.70;;
59872;SDS011;50750;51.636;4.948;2022-11-15T01:14:53;8.70;;;5.10;;
59872;SDS011;50750;51.636;4.948;2022-11-15T01:17:20;7.50;;;4.70;;
59872;SDS011;50750;51.636;4.948;2022-11-15T01:19:47;6.00;;;4.00;;
59872;SDS011;50750;51.636;4.948;2022-11-15T01:22:13;6.20;;;3.90;;
59872;SDS011;50750;51.636;4.948;2022-11-15T01:24:40;6.60;;;3.90;;
59872;SDS011;50750;51.636;4.948;2022-11-15T01:27:07;6.90;;;4.30;;
59872;SDS011;50750;51.636;4.948;2022-11-15T01:29:33;5.80;;;4.30;;
59872;SDS011;50750;51.636;4.948;2022-11-15T01:32:00;7.10;;;4.40;;
59872;SDS011;50750;51.636;4.948;2022-11-15T01:34:26;7.20;;;4.30;;
59872;SDS011;50750;51.636;4.948;2022-11-15T01:36:53;7.20;;;4.30;;
59872;SDS011;50750;51.636;4.948;2022-11-15T01:39:20;7.00;;;4.00;;
59872;SDS011;50750;51.636;4.948;2022-11-15T01:41:46;6.90;;;4.50;;
59872;SDS011;50750;51.636;4.948;2022-11-15T01:47:31;6.20;;;4.00;;
59872;SDS011;50750;51.636;4.948;2022-11-15T01:50:04;7.10;;;4.00;;
59872;SDS011;50750;51.636;4.948;2022-11-15T01:52:36;6.70;;;4.00;;
59872;SDS011;50750;51.636;4.948;2022-11-15T01:55:16;8.00;;;4.50;;
59872;SDS011;50750;51.636;4.948;2022-11-15T01:57:45;7.40;;;4.50;;
59872;SDS011;50750;51.636;4.948;2022-11-15T02:00:14;5.40;;;4.10;;
59872;SDS011;50750;51.636;4.948;2022-11-15T02:02:41;6.30;;;4.30;;
59872;SDS011;50750;51.636;4.948;2022-11-15T02:05:09;6.30;;;3.90;;
59872;SDS011;50750;51.636;4.948;2022-11-15T02:07:36;6.20;;;4.20;;
59872;SDS011;50750;51.636;4.948;2022-11-15T02:10:04;6.00;;;4.20;;
59872;SDS011;50750;51.636;4.948;2022-11-15T02:12:34;6.70;;;4.10;;
59872;SDS011;50750;51.636;4.948;2022-11-15T02:15:02;7.20;;;4.60;;
59872;SDS011;50750;51.636;4.948;2022-11-15T02:20:41;6.40;;;4.30;;
59872;SDS011;50750;51.636;4.948;2022-11-15T02:39:49;5.30;;;3.70;;
59872;SDS011;50750;51.636;4.948;2022-11-15T02:45:17;5.60;;;3.70;;
59872;SDS011;50750;51.636;4.948;2022-11-15T02:47:49;6.50;;;3.90;;
59872;SDS011;50750;51.636;4.948;2022-11-15T02:50:21;6.30;;;3.80;;
59872;SDS011;50750;51.636;4.948;2022-11-15T02:52:53;6.20;;;3.90;;
59872;SDS011;50750;51.636;4.948;2022-11-15T02:55:36;6.60;;;4.00;;
59872;SDS011;50750;51.636;4.948;2022-11-15T03:00:49;6.30;;;4.10;;
59872;SDS011;50750;51.636;4.948;2022-11-15T03:03:52;5.80;;;3.80;;
59872;SDS011;50750;51.636;4.948;2022-11-15T03:11:41;6.70;;;4.00;;
59872;SDS011;50750;51.636;4.948;2022-11-15T03:14:18;5.70;;;3.70;;
59872;SDS011;50750;51.636;4.948;2022-11-15T03:16:58;5.60;;;4.10;;
59872;SDS011;50750;51.636;4.948;2022-11-15T03:22:07;6.20;;;4.20;;
59872;SDS011;50750;51.636;4.948;2022-11-15T03:24:38;4.20;;;3.10;;
59872;SDS011;50750;51.636;4.948;2022-11-15T03:27:05;4.30;;;3.00;;
59872;SDS011;50750;51.636;4.948;2022-11-15T03:29:37;5.40;;;3.30;;
59872;SDS011;50750;51.636;4.948;2022-11-15T03:32:10;5.20;;;3.20;;
59872;SDS011;50750;51.636;4.948;2022-11-15T03:35:17;5.40;;;3.10;;
59872;SDS011;50750;51.636;4.948;2022-11-15T03:37:42;4.70;;;3.20;;
59872;SDS011;50750;51.636;4.948;2022-11-15T03:40:10;5.80;;;3.70;;
59872;SDS011;50750;51.636;4.948;2022-11-15T03:42:46;5.20;;;3.40;;
59872;SDS011;50750;51.636;4.948;2022-11-15T03:45:26;5.30;;;3.30;;
59872;SDS011;50750;51.636;4.948;2022-11-15T03:47:59;4.90;;;3.50;;
59872;SDS011;50750;51.636;4.948;2022-11-15T03:50:31;5.90;;;3.40;;
59872;SDS011;50750;51.636;4.948;2022-11-15T03:52:58;4.50;;;3.30;;
59872;SDS011;50750;51.636;4.948;2022-11-15T03:55:25;4.80;;;3.40;;
59872;SDS011;50750;51.636;4.948;2022-11-15T03:57:53;5.40;;;3.30;;
59872;SDS011;50750;51.636;4.948;2022-11-15T04:00:23;4.60;;;3.30;;
59872;SDS011;50750;51.636;4.948;2022-11-15T04:02:49;4.90;;;3.40;;
59872;SDS011;50750;51.636;4.948;2022-11-15T04:05:16;5.40;;;3.70;;
59872;SDS011;50750;51.636;4.948;2022-11-15T04:07:42;4.90;;;3.30;;
59872;SDS011;50750;51.636;4.948;2022-11-15T04:10:10;4.90;;;3.40;;
59872;SDS011;50750;51.636;4.948;2022-11-15T04:12:41;4.50;;;3.50;;
59872;SDS011;50750;51.636;4.948;2022-11-15T04:15:10;5.50;;;3.50;;
59872;SDS011;50750;51.636;4.948;2022-11-15T04:17:49;5.20;;;3.20;;
59872;SDS011;50750;51.636;4.948;2022-11-15T04:20:21;4.90;;;3.80;;
59872;SDS011;50750;51.636;4.948;2022-11-15T04:23:13;4.00;;;2.90;;
59872;SDS011;50750;51.636;4.948;2022-11-15T04:26:07;4.50;;;2.60;;
59872;SDS011;50750;51.636;4.948;2022-11-15T04:28:37;3.40;;;2.50;;
59872;SDS011;50750;51.636;4.948;2022-11-15T04:31:23;4.20;;;2.60;;
59872;SDS011;50750;51.636;4.948;2022-11-15T04:33:49;3.90;;;2.70;;
59872;SDS011;50750;51.636;4.948;2022-11-15T04:36:16;3.90;;;2.60;;
59872;SDS011;50750;51.636;4.948;2022-11-15T04:39:01;4.80;;;2.90;;
59872;SDS011;50750;51.636;4.948;2022-11-15T04:41:28;5.50;;;2.90;;
59872;SDS011;50750;51.636;4.948;2022-11-15T04:43:55;4.80;;;2.90;;
59872;SDS011;50750;51.636;4.948;2022-11-15T04:46:22;4.40;;;2.80;;
59872;SDS011;50750;51.636;4.948;2022-11-15T04:48:50;4.60;;;3.10;;
59872;SDS011;50750;51.636;4.948;2022-11-15T04:51:17;4.90;;;3.20;;
59872;SDS011;50750;51.636;4.948;2022-11-15T04:53:44;4.60;;;3.20;;
59872;SDS011;50750;51.636;4.948;2022-11-15T04:56:10;3.70;;;2.80;;
59872;SDS011;50750;51.636;4.948;2022-11-15T04:58:37;5.00;;;2.90;;
59872;SDS011;50750;51.636;4.948;2022-11-15T05:01:11;4.80;;;3.30;;
59872;SDS011;50750;51.636;4.948;2022-11-15T05:03:41;4.30;;;2.90;;
59872;SDS011;50750;51.636;4.948;2022-11-15T05:06:28;4.40;;;2.90;;
59872;SDS011;50750;51.636;4.948;2022-11-15T05:08:55;5.10;;;3.10;;
59872;SDS011;50750;51.636;4.948;2022-11-15T05:11:22;4.10;;;3.10;;
59872;SDS011;50750;51.636;4.948;2022-11-15T05:13:49;4.20;;;3.30;;
59872;SDS011;50750;51.636;4.948;2022-11-15T05:16:15;4.30;;;2.80;;
59872;SDS011;50750;51.636;4.948;2022-11-15T05:18:42;5.10;;;3.00;;
59872;SDS011;50750;51.636;4.948;2022-11-15T05:21:10;3.90;;;2.80;;
59872;SDS011;50750;51.636;4.948;2022-11-15T05:23:39;4.10;;;2.60;;
59872;SDS011;50750;51.636;4.948;2022-11-15T05:26:06;4.00;;;2.60;;
59872;SDS011;50750;51.636;4.948;2022-11-15T05:28:35;4.20;;;2.70;;
59872;SDS011;50750;51.636;4.948;2022-11-15T05:31:06;5.80;;;3.00;;
59872;SDS011;50750;51.636;4.948;2022-11-15T05:33:38;3.80;;;2.80;;
59872;SDS011;50750;51.636;4.948;2022-11-15T05:38:43;4.10;;;2.90;;
59872;SDS011;50750;51.636;4.948;2022-11-15T05:41:11;4.60;;;3.20;;
59872;SDS011;50750;51.636;4.948;2022-11-15T05:43:39;4.70;;;2.90;;
59872;SDS011;50750;51.636;4.948;2022-11-15T05:46:06;4.50;;;3.00;;
59872;SDS011;50750;51.636;4.948;2022-11-15T05:48:34;4.40;;;3.10;;
59872;SDS011;50750;51.636;4.948;2022-11-15T05:51:02;3.70;;;2.40;;
59872;SDS011;50750;51.636;4.948;2022-11-15T05:53:31;3.90;;;3.00;;
59872;SDS011;50750;51.636;4.948;2022-11-15T05:55:58;4.40;;;3.10;;
59872;SDS011;50750;51.636;4.948;2022-11-15T05:58:24;4.20;;;2.80;;
59872;SDS011;50750;51.636;4.948;2022-11-15T06:00:51;3.90;;;2.70;;
59872;SDS011;50750;51.636;4.948;2022-11-15T06:03:17;5.20;;;3.10;;
59872;SDS011;50750;51.636;4.948;2022-11-15T06:05:44;5.50;;;3.00;;
59872;SDS011;50750;51.636;4.948;2022-11-15T06:08:10;5.00;;;2.90;;
59872;SDS011;50750;51.636;4.948;2022-11-15T06:10:37;3.80;;;2.80;;
59872;SDS011;50750;51.636;4.948;2022-11-15T06:13:04;4.30;;;3.20;;
59872;SDS011;50750;51.636;4.948;2022-11-15T06:15:32;4.80;;;2.90;;
59872;SDS011;50750;51.636;4.948;2022-11-15T06:18:00;3.50;;;2.20;;
59872;SDS011;50750;51.636;4.948;2022-11-15T06:20:27;3.70;;;2.30;;
59872;SDS011;50750;51.636;4.948;2022-11-15T06:23:04;4.80;;;2.60;;
59872;SDS011;50750;51.636;4.948;2022-11-15T06:25:31;3.80;;;2.70;;
59872;SDS011;50750;51.636;4.948;2022-11-15T06:27:58;4.30;;;2.80;;
59872;SDS011;50750;51.636;4.948;2022-11-15T06:30:26;4.10;;;2.60;;
59872;SDS011;50750;51.636;4.948;2022-11-15T06:33:00;3.80;;;2.60;;
59872;SDS011;50750;51.636;4.948;2022-11-15T06:35:28;3.70;;;2.40;;
59872;SDS011;50750;51.636;4.948;2022-11-15T06:37:55;5.10;;;2.80;;
59872;SDS011;50750;51.636;4.948;2022-11-15T06:40:27;3.90;;;2.60;;
59872;SDS011;50750;51.636;4.948;2022-11-15T06:42:57;4.10;;;2.50;;
59872;SDS011;50750;51.636;4.948;2022-11-15T06:45:25;4.20;;;2.70;;
59872;SDS011;50750;51.636;4.948;2022-11-15T06:47:53;4.30;;;2.90;;
59872;SDS011;50750;51.636;4.948;2022-11-15T06:50:20;6.30;;;3.30;;
59872;SDS011;50750;51.636;4.948;2022-11-15T06:52:46;6.80;;;3.30;;
59872;SDS011;50750;51.636;4.948;2022-11-15T06:55:13;5.60;;;3.50;;
59872;SDS011;50750;51.636;4.948;2022-11-15T06:57:46;5.40;;;3.40;;
59872;SDS011;50750;51.636;4.948;2022-11-15T07:00:14;4.80;;;3.40;;
59872;SDS011;50750;51.636;4.948;2022-11-15T07:02:42;4.40;;;3.10;;
59872;SDS011;50750;51.636;4.948;2022-11-15T07:05:09;4.30;;;2.70;;
59872;SDS011;50750;51.636;4.948;2022-11-15T07:07:36;4.00;;;2.60;;
59872;SDS011;50750;51.636;4.948;2022-11-15T07:10:03;4.70;;;2.90;;
59872;SDS011;50750;51.636;4.948;2022-11-15T07:12:30;4.60;;;2.50;;
59872;SDS011;50750;51.636;4.948;2022-11-15T07:14:57;4.50;;;2.90;;
59872;SDS011;50750;51.636;4.948;2022-11-15T07:17:23;4.30;;;2.80;;
59872;SDS011;50750;51.636;4.948;2022-11-15T07:19:50;4.40;;;2.70;;
59872;SDS011;50750;51.636;4.948;2022-11-15T07:22:16;5.80;;;3.00;;
59872;SDS011;50750;51.636;4.948;2022-11-15T07:24:43;5.00;;;2.80;;
59872;SDS011;50750;51.636;4.948;2022-11-15T07:27:09;4.10;;;2.90;;
59872;SDS011;50750;51.636;4.948;2022-11-15T07:29:36;6.00;;;2.90;;
59872;SDS011;50750;51.636;4.948;2022-11-15T07:32:02;3.80;;;2.80;;
59872;SDS011;50750;51.636;4.948;2022-11-15T07:34:29;3.80;;;2.70;;
59872;SDS011;50750;51.636;4.948;2022-11-15T07:36:55;4.80;;;3.00;;
59872;SDS011;50750;51.636;4.948;2022-11-15T07:39:22;5.30;;;2.90;;
59872;SDS011;50750;51.636;4.948;2022-11-15T07:41:48;3.70;;;2.70;;
59872;SDS011;50750;51.636;4.948;2022-11-15T07:44:15;3.90;;;2.40;;
59872;SDS011;50750;51.636;4.948;2022-11-15T07:46:42;4.00;;;2.70;;
59872;SDS011;50750;51.636;4.948;2022-11-15T07:49:08;4.50;;;2.50;;
59872;SDS011;50750;51.636;4.948;2022-11-15T07:51:35;5.40;;;2.90;;
59872;SDS011;50750;51.636;4.948;2022-11-15T07:54:01;4.70;;;2.50;;
59872;SDS011;50750;51.636;4.948;2022-11-15T07:56:28;4.80;;;2.30;;
59872;SDS011;50750;51.636;4.948;2022-11-15T07:58:54;3.80;;;2.30;;
59872;SDS011;50750;51.636;4.948;2022-11-15T08:01:21;3.20;;;2.20;;
59872;SDS011;50750;51.636;4.948;2022-11-15T08:03:48;3.60;;;2.30;;
59872;SDS011;50750;51.636;4.948;2022-11-15T08:06:15;4.00;;;2.20;;
59872;SDS011;50750;51.636;4.948;2022-11-15T08:08:41;3.50;;;2.30;;
59872;SDS011;50750;51.636;4.948;2022-11-15T08:11:08;4.20;;;2.80;;
59872;SDS011;50750;51.636;4.948;2022-11-15T08:13:34;4.30;;;2.40;;
59872;SDS011;50750;51.636;4.948;2022-11-15T08:16:02;3.90;;;2.20;;
59872;SDS011;50750;51.636;4.948;2022-11-15T08:18:31;4.00;;;2.40;;
59872;SDS011;50750;51.636;4.948;2022-11-15T08:21:01;3.80;;;2.30;;
59872;SDS011;50750;51.636;4.948;2022-11-15T08:23:28;4.10;;;2.50;;
59872;SDS011;50750;51.636;4.948;2022-11-15T08:25:59;3.50;;;2.30;;
59872;SDS011;50750;51.636;4.948;2022-11-15T08:28:28;4.00;;;2.40;;
59872;SDS011;50750;51.636;4.948;2022-11-15T08:30:55;3.00;;;2.00;;
59872;SDS011;50750;51.636;4.948;2022-11-15T08:33:22;3.30;;;2.20;;
59872;SDS011;50750;51.636;4.948;2022-11-15T08:35:48;4.10;;;2.10;;
59872;SDS011;50750;51.636;4.948;2022-11-15T08:38:15;3.40;;;2.00;;
59872;SDS011;50750;51.636;4.948;2022-11-15T08:40:41;3.50;;;2.30;;
59872;SDS011;50750;51.636;4.948;2022-11-15T08:43:08;3.70;;;2.10;;
59872;SDS011;50750;51.636;4.948;2022-11-15T08:45:35;4.20;;;2.30;;
59872;SDS011;50750;51.636;4.948;2022-11-15T08:48:02;4.20;;;2.10;;
59872;SDS011;50750;51.636;4.948;2022-11-15T08:50:29;3.10;;;1.80;;
59872;SDS011;50750;51.636;4.948;2022-11-15T08:52:56;3.50;;;1.60;;
59872;SDS011;50750;51.636;4.948;2022-11-15T08:55:23;3.30;;;1.70;;
59872;SDS011;50750;51.636;4.948;2022-11-15T08:57:50;3.50;;;1.90;;
59872;SDS011;50750;51.636;4.948;2022-11-15T09:00:17;3.90;;;1.90;;
59872;SDS011;50750;51.636;4.948;2022-11-15T09:02:45;4.00;;;2.30;;
59872;SDS011;50750;51.636;4.948;2022-11-15T09:05:12;3.30;;;1.90;;
59872;SDS011;50750;51.636;4.948;2022-11-15T09:07:39;3.90;;;1.90;;
59872;SDS011;50750;51.636;4.948;2022-11-15T09:10:05;3.10;;;1.90;;
59872;SDS011;50750;51.636;4.948;2022-11-15T09:12:33;3.70;;;2.10;;
59872;SDS011;50750;51.636;4.948;2022-11-15T09:14:59;3.90;;;2.20;;
59872;SDS011;50750;51.636;4.948;2022-11-15T09:17:26;3.50;;;2.00;;
59872;SDS011;50750;51.636;4.948;2022-11-15T09:19:52;3.40;;;2.00;;
59872;SDS011;50750;51.636;4.948;2022-11-15T09:22:19;3.50;;;2.00;;
59872;SDS011;50750;51.636;4.948;2022-11-15T09:24:45;3.30;;;1.90;;
59872;SDS011;50750;51.636;4.948;2022-11-15T09:27:12;2.70;;;1.80;;
59872;SDS011;50750;51.636;4.948;2022-11-15T09:29:39;3.30;;;2.00;;
59872;SDS011;50750;51.636;4.948;2022-11-15T09:32:06;3.10;;;2.00;;
59872;SDS011;50750;51.636;4.948;2022-11-15T09:34:32;3.40;;;1.90;;
59872;SDS011;50750;51.636;4.948;2022-11-15T09:36:59;3.50;;;2.00;;
59872;SDS011;50750;51.636;4.948;2022-11-15T09:39:25;3.30;;;2.00;;
59872;SDS011;50750;51.636;4.948;2022-11-15T09:42:01;3.70;;;1.90;;
59872;SDS011;50750;51.636;4.948;2022-11-15T09:44:42;3.20;;;1.90;;
59872;SDS011;50750;51.636;4.948;2022-11-15T09:50:15;3.80;;;1.70;;
59872;SDS011;50750;51.636;4.948;2022-11-15T09:52:54;2.60;;;1.60;;
59872;SDS011;50750;51.636;4.948;2022-11-15T09:55:21;3.10;;;1.90;;
59872;SDS011;50750;51.636;4.948;2022-11-15T09:58:00;3.40;;;1.70;;
59872;SDS011;50750;51.636;4.948;2022-11-15T10:00:38;2.60;;;1.80;;
59872;SDS011;50750;51.636;4.948;2022-11-15T10:05:43;2.60;;;1.70;;
59872;SDS011;50750;51.636;4.948;2022-11-15T10:10:43;2.40;;;1.50;;
59872;SDS011;50750;51.636;4.948;2022-11-15T10:13:22;2.90;;;1.60;;
59872;SDS011;50750;51.636;4.948;2022-11-15T10:15:53;3.30;;;1.70;;
59872;SDS011;50750;51.636;4.948;2022-11-15T10:18:25;3.40;;;1.50;;
59872;SDS011;50750;51.636;4.948;2022-11-15T10:21:15;4.00;;;1.40;;
59872;SDS011;50750;51.636;4.948;2022-11-15T10:23:46;3.50;;;1.50;;
59872;SDS011;50750;51.636;4.948;2022-11-15T10:26:15;4.10;;;1.80;;
59872;SDS011;50750;51.636;4.948;2022-11-15T10:28:43;2.80;;;1.70;;
59872;SDS011;50750;51.636;4.948;2022-11-15T10:31:26;2.90;;;1.50;;
59872;SDS011;50750;51.636;4.948;2022-11-15T10:34:16;2.90;;;1.50;;
59872;SDS011;50750;51.636;4.948;2022-11-15T10:36:56;2.70;;;1.50;;
59872;SDS011;50750;51.636;4.948;2022-11-15T10:39:24;3.10;;;1.40;;
59872;SDS011;50750;51.636;4.948;2022-11-15T10:41:51;2.00;;;1.20;;
59872;SDS011;50750;51.636;4.948;2022-11-15T10:44:23;2.90;;;1.40;;
59872;SDS011;50750;51.636;4.948;2022-11-15T10:49:26;2.60;;;1.20;;
59872;SDS011;50750;51.636;4.948;2022-11-15T10:54:41;2.30;;;1.20;;
59872;SDS011;50750;51.636;4.948;2022-11-15T10:57:15;2.20;;;1.30;;
59872;SDS011;50750;51.636;4.948;2022-11-15T10:59:53;2.80;;;1.30;;
59872;SDS011;50750;51.636;4.948;2022-11-15T11:04:59;2.20;;;1.20;;
59872;SDS011;50750;51.636;4.948;2022-11-15T11:07:27;2.20;;;1.20;;
59872;SDS011;50750;51.636;4.948;2022-11-15T11:10:00;2.80;;;1.10;;
59872;SDS011;50750;51.636;4.948;2022-11-15T11:12:29;2.80;;;1.40;;
59872;SDS011;50750;51.636;4.948;2022-11-15T11:14:58;2.40;;;1.20;;
59872;SDS011;50750;51.636;4.948;2022-11-15T11:26:26;2.70;;;1.30;;
59872;SDS011;50750;51.636;4.948;2022-11-15T11:29:08;2.10;;;1.20;;
59872;SDS011;50750;51.636;4.948;2022-11-15T11:34:55;2.50;;;1.10;;
59872;SDS011;50750;51.636;4.948;2022-11-15T11:42:55;1.60;;;0.90;;
59872;SDS011;50750;51.636;4.948;2022-11-15T11:51:12;1.80;;;1.10;;
59872;SDS011;50750;51.636;4.948;2022-11-15T11:58:57;2.10;;;1.00;;
59872;SDS011;50750;51.636;4.948;2022-11-15T12:01:36;1.70;;;0.90;;
59872;SDS011;50750;51.636;4.948;2022-11-15T12:06:54;1.50;;;0.80;;
59872;SDS011;50750;51.636;4.948;2022-11-15T12:09:38;2.40;;;0.90;;
59872;SDS011;50750;51.636;4.948;2022-11-15T12:14:42;2.10;;;1.10;;
59872;SDS011;50750;51.636;4.948;2022-11-15T12:17:15;2.10;;;1.20;;
59872;SDS011;50750;51.636;4.948;2022-11-15T12:19:44;3.60;;;1.10;;
59872;SDS011;50750;51.636;4.948;2022-11-15T12:22:25;2.60;;;1.10;;
59872;SDS011;50750;51.636;4.948;2022-11-15T12:25:08;1.70;;;0.90;;
59872;SDS011;50750;51.636;4.948;2022-11-15T12:28:18;1.70;;;0.90;;
59872;SDS011;50750;51.636;4.948;2022-11-15T12:30:45;2.30;;;1.00;;
59872;SDS011;50750;51.636;4.948;2022-11-15T12:38:54;1.60;;;0.90;;
59872;SDS011;50750;51.636;4.948;2022-11-15T12:41:26;2.70;;;0.90;;
59872;SDS011;50750;51.636;4.948;2022-11-15T12:43:54;1.50;;;0.80;;
59872;SDS011;50750;51.636;4.948;2022-11-15T13:02:43;2.00;;;0.80;;
59872;SDS011;50750;51.636;4.948;2022-11-15T13:12:58;2.00;;;0.80;;
59872;SDS011;50750;51.636;4.948;2022-11-15T13:18:16;2.40;;;1.30;;
59872;SDS011;50750;51.636;4.948;2022-11-15T13:20:53;1.60;;;0.80;;
59872;SDS011;50750;51.636;4.948;2022-11-15T13:23:20;2.30;;;0.90;;
59872;SDS011;50750;51.636;4.948;2022-11-15T13:25:51;1.80;;;0.70;;
59872;SDS011;50750;51.636;4.948;2022-11-15T13:28:32;1.70;;;0.70;;
59872;SDS011;50750;51.636;4.948;2022-11-15T13:31:00;2.00;;;0.80;;
59872;SDS011;50750;51.636;4.948;2022-11-15T13:33:39;2.20;;;0.70;;
59872;SDS011;50750;51.636;4.948;2022-11-15T13:36:08;2.00;;;0.90;;
59872;SDS011;50750;51.636;4.948;2022-11-15T13:38:40;2.70;;;0.80;;
59872;SDS011;50750;51.636;4.948;2022-11-15T13:41:17;1.10;;;0.60;;
59872;SDS011;50750;51.636;4.948;2022-11-15T13:43:47;1.00;;;0.60;;
59872;SDS011;50750;51.636;4.948;2022-11-15T13:46:28;1.80;;;0.90;;
59872;SDS011;50750;51.636;4.948;2022-11-15T13:49:01;1.80;;;0.70;;
59872;SDS011;50750;51.636;4.948;2022-11-15T13:51:32;2.00;;;0.80;;
59872;SDS011;50750;51.636;4.948;2022-11-15T13:56:40;2.20;;;0.90;;
59872;SDS011;50750;51.636;4.948;2022-11-15T13:59:25;3.20;;;0.90;;
59872;SDS011;50750;51.636;4.948;2022-11-15T14:01:54;1.60;;;0.70;;
59872;SDS011;50750;51.636;4.948;2022-11-15T14:04:23;2.00;;;0.90;;
59872;SDS011;50750;51.636;4.948;2022-11-15T14:12:00;1.90;;;0.80;;
59872;SDS011;50750;51.636;4.948;2022-11-15T14:14:29;1.50;;;0.70;;
59872;SDS011;50750;51.636;4.948;2022-11-15T14:16:59;1.80;;;0.80;;
59872;SDS011;50750;51.636;4.948;2022-11-15T14:24:38;1.90;;;0.70;;
59872;SDS011;50750;51.636;4.948;2022-11-15T14:30:12;1.70;;;0.80;;
59872;SDS011;50750;51.636;4.948;2022-11-15T14:32:47;2.10;;;0.70;;
59872;SDS011;50750;51.636;4.948;2022-11-15T14:35:17;2.10;;;0.70;;
59872;SDS011;50750;51.636;4.948;2022-11-15T14:37:46;2.00;;;0.80;;
59872;SDS011;50750;51.636;4.948;2022-11-15T14:40:14;1.90;;;0.90;;
59872;SDS011;50750;51.636;4.948;2022-11-15T14:42:44;1.40;;;0.60;;
59872;SDS011;50750;51.636;4.948;2022-11-15T14:45:13;2.20;;;0.90;;
59872;SDS011;50750;51.636;4.948;2022-11-15T14:47:44;2.10;;;0.80;;
59872;SDS011;50750;51.636;4.948;2022-11-15T14:50:12;2.80;;;0.80;;
59872;SDS011;50750;51.636;4.948;2022-11-15T14:52:45;2.80;;;0.70;;
59872;SDS011;50750;51.636;4.948;2022-11-15T14:55:46;0.90;;;0.60;;
59872;SDS011;50750;51.636;4.948;2022-11-15T14:58:06;1.40;;;0.70;;
59872;SDS011;50750;51.636;4.948;2022-11-15T15:00:38;2.40;;;0.70;;
59872;SDS011;50750;51.636;4.948;2022-11-15T15:03:06;2.50;;;0.90;;
59872;SDS011;50750;51.636;4.948;2022-11-15T15:05:34;1.90;;;0.60;;
59872;SDS011;50750;51.636;4.948;2022-11-15T15:08:05;1.20;;;0.70;;
59872;SDS011;50750;51.636;4.948;2022-11-15T15:10:37;2.10;;;0.70;;
59872;SDS011;50750;51.636;4.948;2022-11-15T15:13:22;1.40;;;0.60;;
59872;SDS011;50750;51.636;4.948;2022-11-15T15:15:51;4.20;;;0.80;;
59872;SDS011;50750;51.636;4.948;2022-11-15T15:18:18;1.50;;;0.70;;
59872;SDS011;50750;51.636;4.948;2022-11-15T15:20:47;2.10;;;0.80;;
59872;SDS011;50750;51.636;4.948;2022-11-15T15:23:20;1.90;;;0.70;;
59872;SDS011;50750;51.636;4.948;2022-11-15T15:25:47;2.20;;;0.80;;
59872;SDS011;50750;51.636;4.948;2022-11-15T15:28:15;1.80;;;0.70;;
59872;SDS011;50750;51.636;4.948;2022-11-15T15:30:41;1.60;;;0.80;;
59872;SDS011;50750;51.636;4.948;2022-11-15T15:33:08;2.90;;;0.90;;
59872;SDS011;50750;51.636;4.948;2022-11-15T15:35:34;2.10;;;0.80;;
59872;SDS011;50750;51.636;4.948;2022-11-15T15:38:01;2.80;;;0.80;;
59872;SDS011;50750;51.636;4.948;2022-11-15T15:40:29;1.40;;;0.80;;
59872;SDS011;50750;51.636;4.948;2022-11-15T15:42:57;2.70;;;1.00;;
59872;SDS011;50750;51.636;4.948;2022-11-15T15:45:25;2.90;;;0.80;;
59872;SDS011;50750;51.636;4.948;2022-11-15T15:47:53;2.40;;;0.80;;
59872;SDS011;50750;51.636;4.948;2022-11-15T15:52:49;1.60;;;0.70;;
59872;SDS011;50750;51.636;4.948;2022-11-15T15:55:20;2.60;;;0.90;;
59872;SDS011;50750;51.636;4.948;2022-11-15T15:57:48;1.10;;;0.60;;
59872;SDS011;50750;51.636;4.948;2022-11-15T16:00:15;1.60;;;0.70;;
59872;SDS011;50750;51.636;4.948;2022-11-15T16:03:02;1.50;;;0.60;;
59872;SDS011;50750;51.636;4.948;2022-11-15T16:05:28;1.70;;;0.70;;
59872;SDS011;50750;51.636;4.948;2022-11-15T16:07:55;1.40;;;0.70;;
59872;SDS011;50750;51.636;4.948;2022-11-15T16:12:57;1.20;;;0.70;;
59872;SDS011;50750;51.636;4.948;2022-11-15T16:15:25;0.90;;;0.50;;
59872;SDS011;50750;51.636;4.948;2022-11-15T16:17:54;2.20;;;0.70;;
59872;SDS011;50750;51.636;4.948;2022-11-15T16:20:33;1.60;;;0.60;;
59872;SDS011;50750;51.636;4.948;2022-11-15T16:23:18;1.20;;;0.70;;
59872;SDS011;50750;51.636;4.948;2022-11-15T16:25:47;2.20;;;0.80;;
59872;SDS011;50750;51.636;4.948;2022-11-15T16:31:14;3.10;;;1.00;;
59872;SDS011;50750;51.636;4.948;2022-11-15T16:33:43;1.70;;;0.80;;
59872;SDS011;50750;51.636;4.948;2022-11-15T16:36:21;2.50;;;0.90;;
59872;SDS011;50750;51.636;4.948;2022-11-15T16:38:49;2.90;;;1.00;;
59872;SDS011;50750;51.636;4.948;2022-11-15T16:41:16;3.10;;;0.90;;
59872;SDS011;50750;51.636;4.948;2022-11-15T16:43:45;2.00;;;0.80;;
59872;SDS011;50750;51.636;4.948;2022-11-15T16:46:13;1.60;;;0.70;;
59872;SDS011;50750;51.636;4.948;2022-11-15T16:48:45;1.70;;;0.80;;
59872;SDS011;50750;51.636;4.948;2022-11-15T16:51:12;2.40;;;0.90;;
59872;SDS011;50750;51.636;4.948;2022-11-15T16:53:40;2.00;;;0.90;;
59872;SDS011;50750;51.636;4.948;2022-11-15T16:56:21;1.20;;;0.70;;
59872;SDS011;50750;51.636;4.948;2022-11-15T16:58:53;2.40;;;0.80;;
59872;SDS011;50750;51.636;4.948;2022-11-15T17:01:22;1.20;;;0.80;;
59872;SDS011;50750;51.636;4.948;2022-11-15T17:04:01;2.20;;;0.90;;
59872;SDS011;50750;51.636;4.948;2022-11-15T17:06:38;2.10;;;0.90;;
59872;SDS011;50750;51.636;4.948;2022-11-15T17:09:09;2.30;;;0.90;;
59872;SDS011;50750;51.636;4.948;2022-11-15T17:11:41;2.00;;;0.90;;
59872;SDS011;50750;51.636;4.948;2022-11-15T17:14:08;2.00;;;0.80;;
59872;SDS011;50750;51.636;4.948;2022-11-15T17:16:35;2.30;;;0.80;;
59872;SDS011;50750;51.636;4.948;2022-11-15T17:19:11;2.10;;;0.90;;
59872;SDS011;50750;51.636;4.948;2022-11-15T17:21:42;2.20;;;0.90;;
59872;SDS011;50750;51.636;4.948;2022-11-15T17:24:10;2.20;;;0.80;;
59872;SDS011;50750;51.636;4.948;2022-11-15T17:26:37;1.90;;;0.90;;
59872;SDS011;50750;51.636;4.948;2022-11-15T17:29:04;2.10;;;1.00;;
59872;SDS011;50750;51.636;4.948;2022-11-15T17:31:36;2.30;;;0.90;;